createdAt,value
2016-05-05T00:00:26.804Z,1021.98
2016-05-05T00:01:26.792Z,1021.97
2016-05-05T00:02:26.779Z,1022
2016-05-05T00:03:26.766Z,1021.99
2016-05-05T00:04:26.737Z,1021.93
2016-05-05T00:05:26.817Z,1021.95
2016-05-05T00:06:26.695Z,1021.91
2016-05-05T00:07:26.683Z,1021.88
2016-05-05T00:08:26.654Z,1021.9
2016-05-05T00:09:26.642Z,1021.86
2016-05-05T00:10:26.613Z,1021.91
2016-05-05T00:11:26.600Z,1021.94
2016-05-05T00:12:26.586Z,1021.92
2016-05-05T00:13:27.621Z,1021.87
2016-05-05T00:14:26.546Z,1021.91
2016-05-05T00:15:26.532Z,1021.91
2016-05-05T00:16:26.504Z,1021.91
2016-05-05T00:17:26.490Z,1021.91
2016-05-05T00:18:26.478Z,1021.87
2016-05-05T00:19:26.449Z,1021.91
2016-05-05T00:20:26.437Z,1021.91
2016-05-05T00:21:26.861Z,1021.9
2016-05-05T00:22:26.395Z,1021.88
2016-05-05T00:23:26.382Z,1021.92
2016-05-05T00:24:26.354Z,1021.87
2016-05-05T00:25:26.356Z,1021.91
2016-05-05T00:26:26.328Z,1021.92
2016-05-05T00:27:26.299Z,1021.89
2016-05-05T00:28:26.286Z,1021.89
2016-05-05T00:29:26.257Z,1021.87
2016-05-05T00:30:26.291Z,1021.87
2016-05-05T00:31:26.232Z,1021.88
2016-05-05T00:32:26.203Z,1021.88
2016-05-05T00:33:26.189Z,1021.87
2016-05-05T00:34:26.178Z,1021.88
2016-05-05T00:35:26.164Z,1021.9
2016-05-05T00:36:26.136Z,1021.86
2016-05-05T00:37:26.123Z,1021.82
2016-05-05T00:38:26.094Z,1021.84
2016-05-05T00:39:26.081Z,1021.85
2016-05-05T00:40:26.068Z,1021.89
2016-05-05T00:41:26.039Z,1021.86
2016-05-05T00:42:26.027Z,1021.93
2016-05-05T00:43:25.999Z,1021.88
2016-05-05T00:44:25.985Z,1021.87
2016-05-05T00:45:25.972Z,1021.89
2016-05-05T00:46:25.959Z,1021.89
2016-05-05T00:47:25.931Z,1021.85
2016-05-05T00:48:25.918Z,1021.85
2016-05-05T00:49:25.890Z,1021.85
2016-05-05T00:50:25.876Z,1021.8
2016-05-05T00:51:25.864Z,1021.84
2016-05-05T00:52:25.835Z,1021.88
2016-05-05T00:53:25.822Z,1021.84
2016-05-05T00:54:25.809Z,1021.87
2016-05-05T00:55:25.781Z,1021.85
2016-05-05T00:56:25.768Z,1021.84
2016-05-05T00:57:25.740Z,1021.83
2016-05-05T00:58:25.727Z,1021.81
2016-05-05T00:59:25.713Z,1021.82
2016-05-05T01:00:25.684Z,1021.82
2016-05-05T01:01:25.672Z,1021.78
2016-05-05T01:02:25.659Z,1021.8
2016-05-05T01:03:25.630Z,1021.79
2016-05-05T01:04:25.617Z,1021.84
2016-05-05T01:05:25.604Z,1021.81
2016-05-05T01:06:25.607Z,1021.8
2016-05-05T01:07:25.563Z,1021.79
2016-05-05T01:08:25.550Z,1021.78
2016-05-05T01:09:25.521Z,1021.8
2016-05-05T01:10:25.508Z,1021.81
2016-05-05T01:11:25.480Z,1021.78
2016-05-05T01:12:25.466Z,1021.76
2016-05-05T01:13:25.454Z,1021.83
2016-05-05T01:14:25.425Z,1021.84
2016-05-05T01:15:25.413Z,1021.79
2016-05-05T01:16:25.400Z,1021.78
2016-05-05T01:17:25.371Z,1021.82
2016-05-05T01:18:25.358Z,1021.79
2016-05-05T01:19:25.345Z,1021.81
2016-05-05T01:20:25.316Z,1021.75
2016-05-05T01:21:25.304Z,1021.78
2016-05-05T01:22:25.291Z,1021.81
2016-05-05T01:23:25.277Z,1021.77
2016-05-05T01:24:25.249Z,1021.75
2016-05-05T01:25:25.237Z,1021.75
2016-05-05T01:26:25.224Z,1021.75
2016-05-05T01:27:25.195Z,1021.77
2016-05-05T01:28:25.198Z,1021.78
2016-05-05T01:29:25.153Z,1021.74
2016-05-05T01:30:25.140Z,1021.73
2016-05-05T01:31:25.128Z,1021.74
2016-05-05T01:32:25.099Z,1021.76
2016-05-05T01:33:25.086Z,1021.73
2016-05-05T01:34:25.073Z,1021.69
2016-05-05T01:35:25.045Z,1021.69
2016-05-05T01:36:25.032Z,1021.71
2016-05-05T01:37:25.019Z,1021.72
2016-05-05T01:38:24.990Z,1021.74
2016-05-05T01:39:24.977Z,1021.69
2016-05-05T01:40:24.964Z,1021.69
2016-05-05T01:41:24.936Z,1021.73
2016-05-05T01:42:24.923Z,1021.71
2016-05-05T01:43:24.894Z,1021.72
2016-05-05T01:44:24.897Z,1021.73
2016-05-05T01:45:24.869Z,1021.69
2016-05-05T01:46:24.855Z,1021.72
2016-05-05T01:47:24.826Z,1021.73
2016-05-05T01:48:24.813Z,1021.72
2016-05-05T01:49:24.785Z,1021.74
2016-05-05T01:50:24.772Z,1021.74
2016-05-05T01:51:24.760Z,1021.73
2016-05-05T01:52:24.751Z,1021.73
2016-05-05T01:53:24.781Z,1021.74
2016-05-05T01:54:24.811Z,1021.76
2016-05-05T01:55:24.825Z,1021.72
2016-05-05T01:56:24.854Z,1021.73
2016-05-05T01:57:24.871Z,1021.71
2016-05-05T01:58:24.857Z,1021.71
2016-05-05T01:59:24.860Z,1021.68
2016-05-05T02:00:24.862Z,1021.69
2016-05-05T02:01:24.850Z,1021.73
2016-05-05T02:02:24.847Z,1021.71
2016-05-05T02:03:24.841Z,1021.78
2016-05-05T02:05:24.811Z,1021.75
2016-05-05T02:06:24.788Z,1021.73
2016-05-05T02:07:24.778Z,1021.8
2016-05-05T02:08:24.767Z,1021.75
2016-05-05T02:09:24.757Z,1021.71
2016-05-05T02:10:24.729Z,1021.71
2016-05-05T02:11:24.718Z,1021.71
2016-05-05T02:12:24.707Z,1021.69
2016-05-05T02:13:24.696Z,1021.72
2016-05-05T02:14:24.666Z,1021.68
2016-05-05T02:15:24.656Z,1021.67
2016-05-05T02:16:24.626Z,1021.69
2016-05-05T02:17:24.615Z,1021.69
2016-05-05T02:18:24.618Z,1021.7
2016-05-05T02:19:24.574Z,1021.72
2016-05-05T02:20:24.561Z,1021.71
2016-05-05T02:21:24.533Z,1021.74
2016-05-05T02:22:24.521Z,1021.7
2016-05-05T02:23:24.510Z,1021.7
2016-05-05T02:24:24.496Z,1021.7
2016-05-05T02:25:24.468Z,1021.72
2016-05-05T02:26:24.454Z,1021.7
2016-05-05T02:27:24.426Z,1021.74
2016-05-05T02:28:24.413Z,1021.73
2016-05-05T02:29:24.401Z,1021.75
2016-05-05T02:30:24.373Z,1021.82
2016-05-05T02:31:24.359Z,1021.72
2016-05-05T02:32:24.346Z,1021.69
2016-05-05T02:33:24.317Z,1021.72
2016-05-05T02:34:24.304Z,1021.73
2016-05-05T02:35:24.292Z,1021.71
2016-05-05T02:36:24.278Z,1021.7
2016-05-05T02:37:24.250Z,1021.72
2016-05-05T02:38:24.237Z,1021.67
2016-05-05T02:39:24.209Z,1021.72
2016-05-05T02:40:24.196Z,1021.74
2016-05-05T02:41:24.183Z,1021.69
2016-05-05T02:42:24.170Z,1021.68
2016-05-05T02:43:24.141Z,1021.69
2016-05-05T02:44:24.129Z,1021.69
2016-05-05T02:45:24.100Z,1021.67
2016-05-05T02:46:24.086Z,1021.74
2016-05-05T02:47:24.074Z,1021.74
2016-05-05T02:48:24.046Z,1021.75
2016-05-05T02:49:24.032Z,1021.73
2016-05-05T02:50:24.020Z,1021.71
2016-05-05T02:51:23.991Z,1021.71
2016-05-05T02:52:24.072Z,1021.76
2016-05-05T02:53:23.949Z,1021.74
2016-05-05T02:54:23.937Z,1021.74
2016-05-05T02:55:23.924Z,1021.8
2016-05-05T02:56:23.911Z,1021.76
2016-05-05T02:57:23.898Z,1021.75
2016-05-05T02:58:23.869Z,1021.75
2016-05-05T02:59:23.841Z,1021.77
2016-05-05T03:00:24.079Z,1021.8
2016-05-05T03:01:23.815Z,1021.84
2016-05-05T03:02:23.787Z,1021.78
2016-05-05T03:03:23.773Z,1021.84
2016-05-05T03:04:23.760Z,1021.81
2016-05-05T03:05:23.732Z,1021.83
2016-05-05T03:06:23.719Z,1021.79
2016-05-05T03:07:23.706Z,1021.79
2016-05-05T03:08:24.084Z,1021.85
2016-05-05T03:09:24.165Z,1021.83
2016-05-05T03:10:23.651Z,1021.85
2016-05-05T03:11:23.622Z,1021.83
2016-05-05T03:12:23.610Z,1021.91
2016-05-05T03:13:23.581Z,1021.87
2016-05-05T03:14:23.569Z,1021.84
2016-05-05T03:15:23.555Z,1021.83
2016-05-05T03:16:24.089Z,1021.86
2016-05-05T03:17:23.514Z,1021.85
2016-05-05T03:18:23.502Z,1021.84
2016-05-05T03:19:23.489Z,1021.82
2016-05-05T03:20:23.460Z,1021.8
2016-05-05T03:21:23.446Z,1021.83
2016-05-05T03:22:23.433Z,1021.81
2016-05-05T03:23:23.405Z,1021.79
2016-05-05T03:24:24.127Z,1021.8
2016-05-05T03:25:23.380Z,1021.82
2016-05-05T03:26:23.366Z,1021.78
2016-05-05T03:27:23.338Z,1021.8
2016-05-05T03:28:23.324Z,1021.78
2016-05-05T03:29:23.313Z,1021.75
2016-05-05T03:30:23.284Z,1021.79
2016-05-05T03:31:23.270Z,1021.77
2016-05-05T03:32:23.398Z,1021.78
2016-05-05T03:33:23.229Z,1021.77
2016-05-05T03:34:23.216Z,1021.78
2016-05-05T03:35:23.188Z,1021.77
2016-05-05T03:36:23.175Z,1021.76
2016-05-05T03:37:23.162Z,1021.78
2016-05-05T03:38:23.134Z,1021.78
2016-05-05T03:39:23.120Z,1021.8
2016-05-05T03:40:23.404Z,1021.79
2016-05-05T03:41:23.078Z,1021.82
2016-05-05T03:42:23.066Z,1021.81
2016-05-05T03:43:23.037Z,1021.83
2016-05-05T03:44:23.025Z,1021.77
2016-05-05T03:45:23.011Z,1021.78
2016-05-05T03:46:22.983Z,1021.79
2016-05-05T03:47:22.970Z,1021.78
2016-05-05T03:48:23.395Z,1021.78
2016-05-05T03:49:22.928Z,1021.74
2016-05-05T03:50:22.915Z,1021.78
2016-05-05T03:51:22.902Z,1021.77
2016-05-05T03:52:22.874Z,1021.74
2016-05-05T03:53:22.860Z,1021.78
2016-05-05T03:54:22.848Z,1021.8
2016-05-05T03:55:22.819Z,1021.76
2016-05-05T03:56:22.807Z,1021.77
2016-05-05T03:57:22.778Z,1021.79
2016-05-05T03:58:22.765Z,1021.81
2016-05-05T03:59:22.752Z,1021.79
2016-05-05T04:00:22.739Z,1021.78
2016-05-05T04:01:22.710Z,1021.77
2016-05-05T04:02:22.698Z,1021.8
2016-05-05T04:03:22.668Z,1021.78
2016-05-05T04:04:22.656Z,1021.76
2016-05-05T04:05:22.643Z,1021.76
2016-05-05T04:06:22.631Z,1021.76
2016-05-05T04:07:22.602Z,1021.77
2016-05-05T04:08:22.589Z,1021.77
2016-05-05T04:09:22.560Z,1021.78
2016-05-05T04:10:22.547Z,1021.8
2016-05-05T04:11:22.534Z,1021.78
2016-05-05T04:12:22.506Z,1021.76
2016-05-05T04:13:22.493Z,1021.79
2016-05-05T04:14:22.480Z,1021.75
2016-05-05T04:15:22.467Z,1021.78
2016-05-05T04:16:22.439Z,1021.79
2016-05-05T04:17:22.426Z,1021.79
2016-05-05T04:18:22.397Z,1021.76
2016-05-05T04:19:22.384Z,1021.76
2016-05-05T04:20:22.371Z,1021.79
2016-05-05T04:21:22.342Z,1021.72
2016-05-05T04:22:22.330Z,1021.78
2016-05-05T04:23:22.316Z,1021.72
2016-05-05T04:24:22.288Z,1021.69
2016-05-05T04:25:22.275Z,1021.71
2016-05-05T04:26:22.263Z,1021.7
2016-05-05T04:27:22.234Z,1021.7
2016-05-05T04:28:22.221Z,1021.72
2016-05-05T04:29:22.208Z,1021.73
2016-05-05T04:30:22.179Z,1021.69
2016-05-05T04:31:22.166Z,1021.72
2016-05-05T04:32:22.138Z,1021.68
2016-05-05T04:33:22.124Z,1021.69
2016-05-05T04:34:22.112Z,1021.67
2016-05-05T04:35:22.098Z,1021.66
2016-05-05T04:36:22.071Z,1021.66
2016-05-05T04:37:22.057Z,1021.72
2016-05-05T04:38:22.029Z,1021.68
2016-05-05T04:39:22.032Z,1021.73
2016-05-05T04:40:22.003Z,1021.67
2016-05-05T04:41:21.975Z,1021.64
2016-05-05T04:42:21.978Z,1021.71
2016-05-05T04:43:21.948Z,1021.66
2016-05-05T04:44:21.920Z,1021.63
2016-05-05T04:45:21.907Z,1021.64
2016-05-05T04:46:21.895Z,1021.64
2016-05-05T04:47:21.866Z,1021.6
2016-05-05T04:48:21.852Z,1021.64
2016-05-05T04:49:21.840Z,1021.64
2016-05-05T04:50:21.811Z,1021.63
2016-05-05T04:51:21.798Z,1021.66
2016-05-05T04:52:21.769Z,1021.63
2016-05-05T04:53:21.758Z,1021.64
2016-05-05T04:54:22.181Z,1021.62
2016-05-05T04:55:21.715Z,1021.65
2016-05-05T04:56:21.703Z,1021.71
2016-05-05T04:57:21.689Z,1021.67
2016-05-05T04:58:21.660Z,1021.73
2016-05-05T04:59:21.649Z,1021.7
2016-05-05T05:00:21.619Z,1021.75
2016-05-05T05:01:21.622Z,1021.77
2016-05-05T05:02:21.594Z,1021.73
2016-05-05T05:03:21.580Z,1021.72
2016-05-05T05:04:21.551Z,1021.74
2016-05-05T05:05:21.539Z,1021.72
2016-05-05T05:06:21.511Z,1021.74
2016-05-05T05:07:21.498Z,1021.73
2016-05-05T05:08:21.485Z,1021.7
2016-05-05T05:09:21.456Z,1021.7
2016-05-05T05:10:21.443Z,1021.67
2016-05-05T05:11:21.430Z,1021.66
2016-05-05T05:12:21.402Z,1021.66
2016-05-05T05:13:21.389Z,1021.65
2016-05-05T05:14:21.376Z,1021.67
2016-05-05T05:15:21.348Z,1021.62
2016-05-05T05:16:21.334Z,1021.63
2016-05-05T05:17:21.305Z,1021.63
2016-05-05T05:18:21.292Z,1021.63
2016-05-05T05:19:21.280Z,1021.66
2016-05-05T05:20:21.267Z,1021.63
2016-05-05T05:21:21.239Z,1021.64
2016-05-05T05:22:21.210Z,1021.6
2016-05-05T05:23:21.197Z,1021.62
2016-05-05T05:24:21.184Z,1021.62
2016-05-05T05:25:21.171Z,1021.64
2016-05-05T05:26:21.142Z,1021.61
2016-05-05T05:27:21.129Z,1021.61
2016-05-05T05:28:21.101Z,1021.63
2016-05-05T05:29:21.104Z,1021.61
2016-05-05T05:30:21.075Z,1021.61
2016-05-05T05:31:21.062Z,1021.65
2016-05-05T05:32:21.033Z,1021.66
2016-05-05T05:33:21.021Z,1021.61
2016-05-05T05:34:20.992Z,1021.64
2016-05-05T05:35:20.979Z,1021.63
2016-05-05T05:36:20.966Z,1021.63
2016-05-05T05:37:20.937Z,1021.68
2016-05-05T05:38:20.924Z,1021.64
2016-05-05T05:39:21.506Z,1021.64
2016-05-05T05:40:20.899Z,1021.66
2016-05-05T05:41:20.870Z,1021.64
2016-05-05T05:42:20.857Z,1021.64
2016-05-05T05:43:20.828Z,1021.66
2016-05-05T05:44:20.815Z,1021.7
2016-05-05T05:45:20.803Z,1021.69
2016-05-05T05:46:20.775Z,1021.69
2016-05-05T05:47:20.761Z,1021.71
2016-05-05T05:48:20.733Z,1021.68
2016-05-05T05:49:20.720Z,1021.72
2016-05-05T05:50:20.706Z,1021.73
2016-05-05T05:51:20.678Z,1021.73
2016-05-05T05:52:20.666Z,1021.71
2016-05-05T05:53:20.652Z,1021.76
2016-05-05T05:54:20.639Z,1021.72
2016-05-05T05:55:20.611Z,1021.74
2016-05-05T05:56:20.597Z,1021.75
2016-05-05T05:57:20.569Z,1021.74
2016-05-05T05:58:20.557Z,1021.73
2016-05-05T05:59:20.544Z,1021.73
2016-05-05T06:00:20.530Z,1021.77
2016-05-05T06:01:20.502Z,1021.76
2016-05-05T06:02:20.488Z,1021.77
2016-05-05T06:03:20.460Z,1021.77
2016-05-05T06:04:20.448Z,1021.73
2016-05-05T06:05:20.435Z,1021.76
2016-05-05T06:06:20.407Z,1021.79
2016-05-05T06:07:20.393Z,1021.75
2016-05-05T06:08:20.379Z,1021.73
2016-05-05T06:09:20.351Z,1021.72
2016-05-05T06:10:20.355Z,1021.71
2016-05-05T06:11:20.388Z,1021.74
2016-05-05T06:12:20.297Z,1021.72
2016-05-05T06:13:20.284Z,1021.69
2016-05-05T06:14:20.271Z,1021.72
2016-05-05T06:15:20.242Z,1021.72
2016-05-05T06:16:20.230Z,1021.75
2016-05-05T06:17:20.201Z,1021.75
2016-05-05T06:18:20.188Z,1021.72
2016-05-05T06:19:20.378Z,1021.69
2016-05-05T06:20:20.162Z,1021.71
2016-05-05T06:21:20.134Z,1021.71
2016-05-05T06:22:20.121Z,1021.68
2016-05-05T06:23:20.493Z,1021.7
2016-05-05T06:24:20.074Z,1021.7
2016-05-05T06:25:20.060Z,1021.69
2016-05-05T06:26:20.033Z,1021.69
2016-05-05T06:27:20.316Z,1021.7
2016-05-05T06:28:20.006Z,1021.71
2016-05-05T06:29:19.993Z,1021.7
2016-05-05T06:30:19.965Z,1021.65
2016-05-05T06:31:19.952Z,1021.68
2016-05-05T06:32:19.924Z,1021.7
2016-05-05T06:33:19.910Z,1021.66
2016-05-05T06:34:19.898Z,1021.65
2016-05-05T06:35:20.322Z,1021.67
2016-05-05T06:36:19.856Z,1021.63
2016-05-05T06:37:19.843Z,1021.69
2016-05-05T06:38:19.814Z,1021.59
2016-05-05T06:39:19.801Z,1021.62
2016-05-05T06:40:19.789Z,1021.61
2016-05-05T06:41:19.759Z,1021.57
2016-05-05T06:42:19.748Z,1021.56
2016-05-05T06:43:20.328Z,1021.57
2016-05-05T06:44:19.706Z,1021.56
2016-05-05T06:45:19.692Z,1021.59
2016-05-05T06:46:19.680Z,1021.56
2016-05-05T06:47:19.651Z,1021.58
2016-05-05T06:48:19.638Z,1021.57
2016-05-05T06:49:19.625Z,1021.58
2016-05-05T06:50:19.597Z,1021.61
2016-05-05T06:51:19.583Z,1021.58
2016-05-05T06:52:19.571Z,1021.54
2016-05-05T06:53:19.542Z,1021.57
2016-05-05T06:54:19.530Z,1021.58
2016-05-05T06:55:19.516Z,1021.6
2016-05-05T06:56:19.488Z,1021.58
2016-05-05T06:57:19.475Z,1021.58
2016-05-05T06:58:19.462Z,1021.56
2016-05-05T06:59:19.637Z,1021.62
2016-05-05T07:00:19.420Z,1021.55
2016-05-05T07:01:19.393Z,1021.56
2016-05-05T07:02:19.379Z,1021.58
2016-05-05T07:03:19.366Z,1021.6
2016-05-05T07:04:19.338Z,1021.57
2016-05-05T07:05:19.325Z,1021.53
2016-05-05T07:06:19.312Z,1021.51
2016-05-05T07:07:19.580Z,1021.51
2016-05-05T07:08:19.270Z,1021.51
2016-05-05T07:09:19.742Z,1021.49
2016-05-05T07:10:19.245Z,1021.49
2016-05-05T07:11:19.215Z,1021.46
2016-05-05T07:12:19.203Z,1021.46
2016-05-05T07:13:19.175Z,1021.47
2016-05-05T07:14:19.162Z,1021.48
2016-05-05T07:15:19.586Z,1021.47
2016-05-05T07:16:19.119Z,1021.48
2016-05-05T07:17:19.107Z,1021.49
2016-05-05T07:18:19.078Z,1021.48
2016-05-05T07:19:19.066Z,1021.42
2016-05-05T07:20:19.052Z,1021.42
2016-05-05T07:21:19.039Z,1021.41
2016-05-05T07:22:19.027Z,1021.43
2016-05-05T07:23:18.997Z,1021.43
2016-05-05T07:24:18.985Z,1021.44
2016-05-05T07:25:18.957Z,1021.47
2016-05-05T07:26:18.944Z,1021.4
2016-05-05T07:27:18.930Z,1021.42
2016-05-05T07:28:18.918Z,1021.39
2016-05-05T07:29:18.889Z,1021.39
2016-05-05T07:30:18.877Z,1021.37
2016-05-05T07:31:18.863Z,1021.35
2016-05-05T07:32:18.835Z,1021.33
2016-05-05T07:33:18.822Z,1021.37
2016-05-05T07:34:18.793Z,1021.34
2016-05-05T07:35:18.780Z,1021.4
2016-05-05T07:36:18.768Z,1021.37
2016-05-05T07:37:18.739Z,1021.33
2016-05-05T07:38:18.726Z,1021.37
2016-05-05T07:39:18.712Z,1021.36
2016-05-05T07:40:18.701Z,1021.34
2016-05-05T07:41:18.671Z,1021.34
2016-05-05T07:42:18.658Z,1021.3
2016-05-05T07:43:18.631Z,1021.27
2016-05-05T07:44:18.617Z,1021.3
2016-05-05T07:45:18.604Z,1021.29
2016-05-05T07:46:18.591Z,1021.25
2016-05-05T07:47:18.562Z,1021.23
2016-05-05T07:48:18.550Z,1021.2
2016-05-05T07:49:18.521Z,1021.18
2016-05-05T07:50:18.509Z,1021.17
2016-05-05T07:51:18.495Z,1021.18
2016-05-05T07:52:18.467Z,1021.16
2016-05-05T07:53:18.469Z,1021.18
2016-05-05T07:54:18.519Z,1021.16
2016-05-05T07:55:18.427Z,1021.21
2016-05-05T07:56:18.399Z,1021.2
2016-05-05T07:57:18.386Z,1021.13
2016-05-05T07:58:18.374Z,1021.16
2016-05-05T07:59:18.345Z,1021.16
2016-05-05T08:00:18.332Z,1021.11
2016-05-05T08:01:18.319Z,1021.11
2016-05-05T08:02:18.290Z,1021.08
2016-05-05T08:03:18.277Z,1021.05
2016-05-05T08:04:18.265Z,1021.11
2016-05-05T08:05:18.236Z,1021.07
2016-05-05T08:06:18.224Z,1021.15
2016-05-05T08:07:18.210Z,1021.1
2016-05-05T08:08:18.181Z,1021.11
2016-05-05T08:09:18.169Z,1021.11
2016-05-05T08:10:18.156Z,1021.12
2016-05-05T08:11:18.127Z,1021.06
2016-05-05T08:12:18.114Z,1021.06
2016-05-05T08:13:18.101Z,1021.1
2016-05-05T08:14:18.073Z,1021.09
2016-05-05T08:15:18.060Z,1021.1
2016-05-05T08:16:18.047Z,1021.06
2016-05-05T08:17:18.033Z,1021.05
2016-05-05T08:18:18.006Z,1021.05
2016-05-05T08:19:17.992Z,1021.08
2016-05-05T08:20:17.964Z,1021.03
2016-05-05T08:21:17.951Z,1021.02
2016-05-05T08:22:17.939Z,1021.02
2016-05-05T08:23:17.925Z,1021.05
2016-05-05T08:24:17.912Z,1020.96
2016-05-05T08:25:17.883Z,1020.98
2016-05-05T08:26:17.871Z,1020.95
2016-05-05T08:27:17.842Z,1021.01
2016-05-05T08:28:17.830Z,1021.04
2016-05-05T08:29:17.816Z,1020.95
2016-05-05T08:30:17.788Z,1020.95
2016-05-05T08:31:17.775Z,1020.9
2016-05-05T08:32:17.762Z,1020.93
2016-05-05T08:33:17.733Z,1020.84
2016-05-05T08:34:17.721Z,1020.85
2016-05-05T08:35:17.707Z,1020.85
2016-05-05T08:36:17.679Z,1020.88
2016-05-05T08:37:17.666Z,1020.82
2016-05-05T08:38:17.653Z,1020.85
2016-05-05T08:39:17.640Z,1020.81
2016-05-05T08:40:17.611Z,1020.8
2016-05-05T08:41:17.598Z,1020.82
2016-05-05T08:42:17.585Z,1020.79
2016-05-05T08:43:17.557Z,1020.78
2016-05-05T08:44:17.544Z,1020.76
2016-05-05T08:45:17.532Z,1020.75
2016-05-05T08:46:17.503Z,1020.76
2016-05-05T08:47:17.487Z,1020.78
2016-05-05T08:48:17.458Z,1020.74
2016-05-05T08:49:17.445Z,1020.73
2016-05-05T08:50:17.433Z,1020.71
2016-05-05T08:51:17.404Z,1020.71
2016-05-05T08:52:17.406Z,1020.69
2016-05-05T08:53:17.378Z,1020.67
2016-05-05T08:54:17.365Z,1020.77
2016-05-05T08:55:17.336Z,1020.72
2016-05-05T08:56:17.324Z,1020.67
2016-05-05T08:57:17.311Z,1020.66
2016-05-05T08:58:17.283Z,1020.69
2016-05-05T08:59:17.269Z,1020.68
2016-05-05T09:00:17.255Z,1020.63
2016-05-05T09:01:17.228Z,1020.59
2016-05-05T09:02:17.216Z,1020.62
2016-05-05T09:03:17.201Z,1020.65
2016-05-05T09:04:17.174Z,1020.63
2016-05-05T09:05:17.176Z,1020.58
2016-05-05T09:06:17.147Z,1020.61
2016-05-05T09:07:17.134Z,1020.62
2016-05-05T09:08:17.106Z,1020.59
2016-05-05T09:09:17.171Z,1020.7
2016-05-05T09:10:17.080Z,1020.66
2016-05-05T09:11:17.051Z,1020.66
2016-05-05T09:12:17.038Z,1020.7
2016-05-05T09:13:17.026Z,1020.6
2016-05-05T09:14:17.013Z,1020.55
2016-05-05T09:15:16.984Z,1020.52
2016-05-05T09:16:16.971Z,1020.5
2016-05-05T09:17:16.943Z,1020.53
2016-05-05T09:18:16.930Z,1020.56
2016-05-05T09:19:16.916Z,1020.55
2016-05-05T09:20:16.889Z,1020.53
2016-05-05T09:21:16.875Z,1020.46
2016-05-05T09:22:16.847Z,1020.5
2016-05-05T09:23:16.850Z,1020.59
2016-05-05T09:24:16.820Z,1020.46
2016-05-05T09:25:16.808Z,1020.5
2016-05-05T09:26:16.779Z,1020.52
2016-05-05T09:27:16.767Z,1020.53
2016-05-05T09:28:16.738Z,1020.42
2016-05-05T09:29:16.725Z,1020.43
2016-05-05T09:30:16.713Z,1020.54
2016-05-05T09:31:16.690Z,1020.49
2016-05-05T09:32:16.664Z,1020.47
2016-05-05T09:33:16.650Z,1020.46
2016-05-05T09:34:16.637Z,1020.36
2016-05-05T09:35:16.624Z,1020.41
2016-05-05T09:36:16.596Z,1020.36
2016-05-05T09:37:16.583Z,1020.47
2016-05-05T09:38:16.554Z,1020.34
2016-05-05T09:39:16.696Z,1020.32
2016-05-05T09:40:16.528Z,1020.33
2016-05-05T09:41:16.499Z,1020.3
2016-05-05T09:42:16.476Z,1020.41
2016-05-05T09:43:16.468Z,1020.34
2016-05-05T09:44:16.455Z,1020.57
2016-05-05T09:45:16.442Z,1020.33
2016-05-05T09:46:16.506Z,1020.33
2016-05-05T09:47:16.401Z,1020.27
2016-05-05T09:48:16.684Z,1020.25
2016-05-05T09:49:16.359Z,1020.31
2016-05-05T09:50:16.331Z,1020.3
2016-05-05T09:51:16.317Z,1020.28
2016-05-05T09:52:16.305Z,1020.32
2016-05-05T09:53:16.292Z,1020.24
2016-05-05T09:54:16.700Z,1020.22
2016-05-05T09:55:16.250Z,1020.31
2016-05-05T09:56:16.237Z,1020.26
2016-05-05T09:57:16.224Z,1020.29
2016-05-05T09:58:16.196Z,1020.33
2016-05-05T09:59:16.183Z,1020.25
2016-05-05T10:00:16.154Z,1020.29
2016-05-05T10:01:16.157Z,1020.26
2016-05-05T10:02:16.519Z,1020.19
2016-05-05T10:03:16.099Z,1020.22
2016-05-05T10:04:16.087Z,1020.18
2016-05-05T10:05:16.073Z,1020.17
2016-05-05T10:06:16.045Z,1020.06
2016-05-05T10:07:16.032Z,1020.16
2016-05-05T10:08:16.019Z,1020.15
2016-05-05T10:09:16.006Z,1020.04
2016-05-05T10:10:16.556Z,1020.22
2016-05-05T10:11:16.090Z,1020.1
2016-05-05T10:12:15.951Z,1020.11
2016-05-05T10:13:15.924Z,1020.12
2016-05-05T10:14:15.910Z,1020.06
2016-05-05T10:15:15.912Z,1020.02
2016-05-05T10:16:15.870Z,1019.91
2016-05-05T10:17:15.856Z,1020.05
2016-05-05T10:18:16.545Z,1019.94
2016-05-05T10:19:15.815Z,1019.93
2016-05-05T10:20:15.801Z,1019.93
2016-05-05T10:21:15.772Z,1019.88
2016-05-05T10:22:15.776Z,1019.95
2016-05-05T10:23:15.747Z,1019.81
2016-05-05T10:24:17.109Z,1019.84
2016-05-05T10:25:15.705Z,1019.81
2016-05-05T10:26:16.536Z,1019.73
2016-05-05T10:27:15.680Z,1019.71
2016-05-05T10:28:16.511Z,1019.68
2016-05-05T10:29:15.638Z,1019.68
2016-05-05T10:30:15.625Z,1019.73
2016-05-05T10:31:15.596Z,1019.71
2016-05-05T10:32:15.583Z,1019.77
2016-05-05T10:33:15.587Z,1019.72
2016-05-05T10:34:15.855Z,1019.74
2016-05-05T10:35:15.530Z,1019.74
2016-05-05T10:36:15.516Z,1019.78
2016-05-05T10:37:15.488Z,1019.74
2016-05-05T10:38:15.475Z,1019.7
2016-05-05T10:39:15.462Z,1019.65
2016-05-05T10:40:15.434Z,1019.72
2016-05-05T10:41:15.420Z,1019.71
2016-05-05T10:42:15.845Z,1019.74
2016-05-05T10:43:15.379Z,1019.64
2016-05-05T10:44:15.366Z,1019.63
2016-05-05T10:45:15.337Z,1019.65
2016-05-05T10:46:15.325Z,1019.55
2016-05-05T10:47:15.312Z,1019.57
2016-05-05T10:48:15.362Z,1019.51
2016-05-05T10:49:15.270Z,1019.53
2016-05-05T10:50:15.257Z,1019.42
2016-05-05T10:51:15.228Z,1019.51
2016-05-05T10:52:15.216Z,1019.53
2016-05-05T10:53:15.203Z,1019.45
2016-05-05T10:54:15.174Z,1019.43
2016-05-05T10:55:15.489Z,1019.54
2016-05-05T10:56:15.148Z,1019.43
2016-05-05T10:57:15.136Z,1019.39
2016-05-05T10:58:15.107Z,1019.44
2016-05-05T10:59:15.126Z,1019.28
2016-05-05T11:00:15.156Z,1019.27
2016-05-05T11:01:15.171Z,1019.33
2016-05-05T11:02:15.202Z,1019.35
2016-05-05T11:03:15.233Z,1019.36
2016-05-05T11:04:15.228Z,1019.33
2016-05-05T11:05:15.231Z,1019.32
2016-05-05T11:06:15.233Z,1019.25
2016-05-05T11:07:15.221Z,1019.31
2016-05-05T11:08:15.223Z,1019.41
2016-05-05T11:09:15.220Z,1019.3
2016-05-05T11:10:15.197Z,1019.21
2016-05-05T11:11:15.189Z,1019.33
2016-05-05T11:12:15.181Z,1019.21
2016-05-05T11:13:15.174Z,1019.33
2016-05-05T11:14:15.147Z,1019.19
2016-05-05T11:15:15.137Z,1019.27
2016-05-05T11:16:15.110Z,1019.19
2016-05-05T11:17:15.099Z,1019.17
2016-05-05T11:18:15.087Z,1019.28
2016-05-05T11:19:15.061Z,1019.24
2016-05-05T11:20:15.048Z,1019.2
2016-05-05T11:21:15.036Z,1019.2
2016-05-05T11:22:15.024Z,1019.11
2016-05-05T11:23:15.009Z,1019.17
2016-05-05T11:24:14.980Z,1019.13
2016-05-05T11:25:14.968Z,1019.1
2016-05-05T11:26:14.971Z,1019.05
2016-05-05T11:27:14.927Z,1019.06
2016-05-05T11:28:14.914Z,1019.04
2016-05-05T11:29:14.886Z,1019.01
2016-05-05T11:30:14.873Z,1019.01
2016-05-05T11:31:14.860Z,1018.95
2016-05-05T11:32:14.833Z,1019.05
2016-05-05T11:33:14.820Z,1018.99
2016-05-05T11:34:14.806Z,1018.98
2016-05-05T11:35:14.777Z,1018.88
2016-05-05T11:36:14.764Z,1018.91
2016-05-05T11:37:14.736Z,1018.91
2016-05-05T11:38:14.723Z,1018.9
2016-05-05T11:39:14.710Z,1018.86
2016-05-05T11:40:14.683Z,1018.87
2016-05-05T11:41:14.669Z,1018.93
2016-05-05T11:42:14.656Z,1018.85
2016-05-05T11:43:14.643Z,1018.84
2016-05-05T11:44:14.615Z,1018.86
2016-05-05T11:45:14.601Z,1018.86
2016-05-05T11:46:14.574Z,1018.8
2016-05-05T11:47:14.560Z,1018.78
2016-05-05T11:48:14.547Z,1018.73
2016-05-05T11:49:14.518Z,1018.68
2016-05-05T11:50:14.506Z,1018.6
2016-05-05T11:51:14.477Z,1018.64
2016-05-05T11:52:14.464Z,1018.63
2016-05-05T11:53:14.451Z,1018.64
2016-05-05T11:54:14.423Z,1018.73
2016-05-05T11:55:14.410Z,1018.65
2016-05-05T11:56:14.398Z,1018.63
2016-05-05T11:57:14.368Z,1018.63
2016-05-05T11:58:14.356Z,1018.67
2016-05-05T11:59:14.342Z,1018.56
2016-05-05T12:00:14.329Z,1018.63
2016-05-05T12:01:14.300Z,1018.55
2016-05-05T12:02:14.288Z,1018.49
2016-05-05T12:03:14.275Z,1018.46
2016-05-05T12:04:14.247Z,1018.48
2016-05-05T12:05:14.234Z,1018.47
2016-05-05T12:06:14.220Z,1018.44
2016-05-05T12:07:14.192Z,1018.43
2016-05-05T12:08:14.179Z,1018.38